Time;durP1;ratioP1;P1;durP2;ratioP2;P2;SDS_P1;SDS_P2;PMS_P1;PMS_P2;Temp;Humidity;BMP_temperature;BMP_pressure;BME280_temperature;BME280_humidity;BME280_pressure;Samples;Min_cycle;Max_cycle;Signal;HPM_P1;HPM_P2
2022/10/02 00:02:27;;;;;;;5.63;2.00;;;13.10;1.00;;;;;;5049421;28;20453;-55
2022/10/02 00:04:54;;;;;;;4.23;2.00;;;13.00;1.00;;;;;;5049109;28;20451;-55
2022/10/02 00:07:29;;;;;;;2.70;1.50;;;12.90;1.00;;;;;;5045212;28;20447;-54
2022/10/02 00:10:00;;;;;;;2.30;1.70;;;13.10;1.00;;;;;;5051049;28;20432;-56
2022/10/02 00:12:28;;;;;;;2.83;1.73;;;13.20;1.00;;;;;;5048923;28;20461;-55
2022/10/02 00:15:01;;;;;;;3.83;2.23;;;13.30;1.00;;;;;;5049509;28;20789;-54
2022/10/02 00:17:38;;;;;;;3.40;2.10;;;13.40;1.00;;;;;;5055692;28;20450;-55
2022/10/02 00:20:13;;;;;;;4.43;1.80;;;13.40;1.00;;;;;;5070751;28;20467;-52
2022/10/02 00:22:50;;;;;;;4.00;1.77;;;13.50;1.00;;;;;;5050640;28;20552;-53
2022/10/02 00:25:37;;;;;;;2.90;1.77;;;13.40;1.00;;;;;;5050083;28;20470;-54
2022/10/02 00:28:11;;;;;;;3.77;1.90;;;13.40;1.00;;;;;;5048171;28;20448;-54
2022/10/02 00:30:47;;;;;;;2.90;1.80;;;13.30;1.00;;;;;;5046023;28;20763;-53
2022/10/02 00:33:13;;;;;;;3.40;1.90;;;13.50;1.00;;;;;;5047924;28;20945;-54
2022/10/02 00:35:49;;;;;;;3.87;1.50;;;13.50;1.00;;;;;;5050969;28;20481;-54
2022/10/02 00:38:56;;;;;;;3.23;1.63;;;13.60;1.00;;;;;;5046120;28;20516;-54
2022/10/02 00:41:31;;;;;;;5.00;1.90;;;13.70;1.00;;;;;;5035276;28;20948;-53
2022/10/02 00:44:12;;;;;;;4.60;1.87;;;13.50;1.00;;;;;;5040725;28;20465;-55
2022/10/02 00:47:05;;;;;;;6.23;1.50;;;13.50;1.00;;;;;;5047429;28;20786;-55
2022/10/02 00:50:00;;;;;;;4.67;1.80;;;13.60;1.00;;;;;;5049316;28;20539;-55
2022/10/02 00:52:55;;;;;;;2.80;1.60;;;13.60;1.00;;;;;;5050362;28;20948;-52
2022/10/02 00:56:00;;;;;;;2.63;1.70;;;13.40;1.00;;;;;;5046137;28;20504;-54
2022/10/02 00:58:40;;;;;;;3.87;2.03;;;13.40;1.00;;;;;;5049778;28;20971;-55
2022/10/02 01:01:12;;;;;;;6.07;2.30;;;13.50;1.00;;;;;;5043385;28;20482;-55
2022/10/02 01:03:43;;;;;;;8.20;1.67;;;13.50;1.00;;;;;;5050373;28;20468;-55
2022/10/02 01:06:09;;;;;;;5.93;1.90;;;13.50;1.00;;;;;;5049636;28;20447;-54
2022/10/02 01:08:36;;;;;;;1.70;1.50;;;13.40;1.00;;;;;;5049367;28;20442;-55
2022/10/02 01:11:03;;;;;;;3.93;2.00;;;13.50;1.00;;;;;;5046592;28;20460;-54
2022/10/02 01:13:30;;;;;;;3.00;1.70;;;13.60;1.00;;;;;;5049482;28;20467;-54
2022/10/02 01:15:59;;;;;;;5.20;2.07;;;13.50;1.00;;;;;;5049162;28;20440;-53
2022/10/02 01:18:26;;;;;;;3.77;1.97;;;13.50;1.00;;;;;;5050319;28;20450;-55
2022/10/02 01:21:04;;;;;;;6.60;1.90;;;13.50;1.00;;;;;;5049475;28;20436;-53
2022/10/02 01:23:38;;;;;;;3.80;1.90;;;13.50;1.00;;;;;;5050433;28;20498;-55
2022/10/02 01:26:04;;;;;;;5.03;1.80;;;13.40;1.00;;;;;;5049184;28;20490;-53
2022/10/02 01:28:30;;;;;;;7.57;2.60;;;13.40;1.00;;;;;;5050089;28;20854;-53
2022/10/02 01:31:01;;;;;;;4.03;2.70;;;13.50;1.00;;;;;;5042488;28;20532;-53
2022/10/02 01:33:27;;;;;;;2.90;1.80;;;13.40;1.00;;;;;;5067184;28;20653;-54
2022/10/02 01:35:52;;;;;;;5.97;2.00;;;13.40;1.00;;;;;;5055820;28;20435;-55
2022/10/02 01:38:21;;;;;;;5.33;2.30;;;13.50;1.00;;;;;;5049159;28;20202;-55
2022/10/02 01:40:47;;;;;;;4.83;1.83;;;13.50;1.00;;;;;;5045991;28;20278;-55
2022/10/02 01:43:23;;;;;;;3.90;1.97;;;13.50;1.00;;;;;;5049735;28;20451;-53
2022/10/02 01:46:15;;;;;;;4.23;2.10;;;13.50;1.00;;;;;;5045422;28;20688;-53
2022/10/02 01:48:46;;;;;;;4.20;1.57;;;13.40;1.00;;;;;;5056934;28;20906;-55
2022/10/02 01:51:23;;;;;;;4.17;2.33;;;13.50;1.00;;;;;;5044045;28;20925;-55
2022/10/02 01:54:07;;;;;;;3.40;1.97;;;13.50;1.00;;;;;;5046792;28;20611;-52
2022/10/02 01:56:32;;;;;;;5.93;2.30;;;13.50;1.00;;;;;;5045881;28;20421;-53
2022/10/02 01:59:20;;;;;;;3.20;1.93;;;13.50;1.00;;;;;;5050123;28;22114;-53
2022/10/02 02:01:57;;;;;;;2.43;1.80;;;13.50;1.00;;;;;;5052711;28;20190;-54
2022/10/02 02:04:27;;;;;;;3.37;1.57;;;13.30;1.00;;;;;;5052058;28;20447;-54
2022/10/02 02:07:12;;;;;;;5.50;2.03;;;13.30;1.00;;;;;;5053077;28;20538;-55
2022/10/02 02:09:44;;;;;;;5.23;2.07;;;13.40;1.00;;;;;;5052648;28;20477;-55
2022/10/02 02:12:39;;;;;;;6.03;2.37;;;13.40;1.00;;;;;;5054547;28;20467;-55
2022/10/02 02:15:17;;;;;;;5.33;1.93;;;13.40;1.00;;;;;;5047591;28;20469;-56
2022/10/02 02:17:54;;;;;;;5.00;2.00;;;13.30;1.00;;;;;;5052248;28;20527;-54
2022/10/02 02:20:28;;;;;;;7.47;2.40;;;13.30;1.00;;;;;;5065368;28;20435;-54
2022/10/02 02:23:03;;;;;;;5.40;2.30;;;13.30;1.00;;;;;;5058629;28;20446;-55
2022/10/02 02:25:32;;;;;;;8.10;2.77;;;13.30;1.00;;;;;;5047149;28;20476;-54
2022/10/02 02:28:03;;;;;;;4.57;2.37;;;13.30;1.00;;;;;;5053110;28;20437;-56
2022/10/02 02:30:31;;;;;;;9.60;2.87;;;13.30;1.00;;;;;;5061379;28;20453;-56
2022/10/02 02:33:33;;;;;;;6.63;2.53;;;13.20;1.00;;;;;;5051596;28;20454;-54
2022/10/02 02:36:05;;;;;;;3.07;2.00;;;13.30;1.00;;;;;;5040496;28;20431;-55
2022/10/02 02:38:35;;;;;;;10.77;2.50;;;13.40;1.00;;;;;;5052394;28;20774;-54
2022/10/02 02:41:07;;;;;;;4.37;2.10;;;13.40;1.00;;;;;;5051979;28;20445;-53
2022/10/02 02:43:48;;;;;;;5.13;2.33;;;13.30;1.00;;;;;;5051799;28;21043;-54
2022/10/02 02:46:29;;;;;;;6.20;2.20;;;13.30;1.00;;;;;;5044835;28;20472;-54
2022/10/02 02:49:01;;;;;;;2.73;1.90;;;13.40;1.00;;;;;;5050902;28;20542;-54
2022/10/02 02:51:33;;;;;;;7.73;2.67;;;13.40;1.00;;;;;;5050372;28;20457;-54
2022/10/02 02:54:27;;;;;;;6.67;2.10;;;13.40;1.00;;;;;;5050774;28;20462;-55
2022/10/02 02:56:56;;;;;;;5.57;2.63;;;13.30;1.00;;;;;;5051664;28;20523;-53
2022/10/02 02:59:24;;;;;;;4.80;2.00;;;13.40;1.00;;;;;;5048376;28;20549;-52
2022/10/02 03:01:50;;;;;;;6.57;2.37;;;13.40;1.00;;;;;;5046717;28;20445;-54
2022/10/02 03:04:15;;;;;;;3.13;1.77;;;13.30;1.00;;;;;;5050269;28;20430;-55
2022/10/02 03:06:44;;;;;;;8.53;2.30;;;13.40;1.00;;;;;;5052149;28;20207;-53
2022/10/02 03:09:13;;;;;;;4.20;2.20;;;13.40;1.00;;;;;;5051133;28;20534;-55
2022/10/02 03:11:51;;;;;;;5.80;2.40;;;13.40;1.00;;;;;;5051243;28;20416;-53
2022/10/02 03:14:26;;;;;;;5.53;2.43;;;13.30;1.00;;;;;;5048951;28;20429;-54
2022/10/02 03:17:20;;;;;;;8.27;2.40;;;13.40;1.00;;;;;;5049316;28;20417;-54
2022/10/02 03:19:46;;;;;;;5.77;2.20;;;13.40;1.00;;;;;;5051205;28;20452;-54
2022/10/02 03:22:28;;;;;;;4.97;2.53;;;13.50;1.00;;;;;;5052271;28;20461;-55
2022/10/02 03:25:09;;;;;;;6.70;2.10;;;13.70;1.00;;;;;;5048721;28;20247;-53
2022/10/02 03:27:42;;;;;;;4.00;2.90;;;13.80;1.00;;;;;;5051151;28;20438;-55
2022/10/02 03:30:09;;;;;;;4.93;3.00;;;13.80;1.00;;;;;;5050243;28;20420;-53
2022/10/02 03:32:37;;;;;;;4.67;2.07;;;13.90;1.00;;;;;;5050889;28;20441;-54
2022/10/02 03:35:06;;;;;;;6.03;2.40;;;14.00;1.00;;;;;;5050756;28;20451;-55
2022/10/02 03:37:31;;;;;;;5.90;2.53;;;14.10;1.00;;;;;;5049768;28;20491;-56
2022/10/02 03:39:59;;;;;;;3.63;1.83;;;14.00;1.00;;;;;;5049562;28;20422;-52
2022/10/02 03:42:28;;;;;;;5.73;2.20;;;14.00;1.00;;;;;;5049918;28;20224;-53
2022/10/02 03:44:53;;;;;;;5.47;2.33;;;14.10;1.00;;;;;;5051890;28;20473;-56
2022/10/02 03:47:19;;;;;;;2.50;1.90;;;14.00;1.00;;;;;;5048515;28;20909;-54
2022/10/02 03:49:45;;;;;;;5.83;1.90;;;13.90;1.00;;;;;;5050579;28;20541;-56
2022/10/02 03:52:16;;;;;;;4.93;2.77;;;13.90;1.00;;;;;;5051226;28;20196;-55
2022/10/02 03:54:42;;;;;;;4.40;1.97;;;13.90;1.00;;;;;;5050464;28;20467;-54
2022/10/02 03:57:16;;;;;;;5.60;2.80;;;13.90;1.00;;;;;;5050303;28;20450;-54
2022/10/02 03:59:48;;;;;;;7.03;1.93;;;13.90;1.00;;;;;;5046348;28;20512;-53
2022/10/02 04:02:31;;;;;;;3.87;2.00;;;13.80;1.00;;;;;;5047724;28;20449;-55
2022/10/02 04:05:18;;;;;;;4.73;2.17;;;13.80;1.00;;;;;;5048921;28;20449;-54
2022/10/02 04:07:47;;;;;;;5.10;2.30;;;13.70;1.00;;;;;;5049170;28;20520;-54
2022/10/02 04:10:26;;;;;;;4.13;2.27;;;13.70;1.00;;;;;;5051158;28;20438;-52
2022/10/02 04:13:00;;;;;;;3.90;2.10;;;13.60;1.00;;;;;;5048490;28;20910;-54
2022/10/02 04:15:54;;;;;;;3.33;1.80;;;13.50;1.00;;;;;;5044967;28;20503;-55
2022/10/02 04:18:25;;;;;;;2.70;2.03;;;13.30;1.00;;;;;;5048543;28;20928;-52
2022/10/02 04:20:55;;;;;;;7.33;1.80;;;13.40;1.00;;;;;;5050629;28;20530;-55
2022/10/02 04:23:28;;;;;;;5.63;2.00;;;13.30;1.00;;;;;;5062649;28;20765;-54
2022/10/02 04:26:04;;;;;;;7.30;2.30;;;13.30;1.00;;;;;;5051991;28;20471;-55
2022/10/02 04:28:37;;;;;;;5.27;2.00;;;13.00;1.00;;;;;;5047239;28;20444;-55
2022/10/02 04:31:10;;;;;;;3.60;2.50;;;13.00;1.00;;;;;;5048031;28;20473;-53
2022/10/02 04:33:36;;;;;;;3.00;2.00;;;12.90;1.00;;;;;;5042122;28;20497;-53
2022/10/02 04:36:22;;;;;;;6.43;2.37;;;12.80;1.00;;;;;;5049214;28;20429;-54
2022/10/02 04:38:56;;;;;;;4.80;2.20;;;12.80;1.00;;;;;;5048443;28;20186;-53
2022/10/02 04:41:24;;;;;;;5.43;2.20;;;12.90;1.00;;;;;;5041390;28;20430;-53
2022/10/02 04:44:15;;;;;;;3.17;1.90;;;13.10;1.00;;;;;;5039358;28;20481;-55
2022/10/02 04:47:09;;;;;;;3.63;2.07;;;13.00;1.00;;;;;;5045578;28;20822;-55
2022/10/02 04:50:09;;;;;;;8.80;2.80;;;13.00;1.00;;;;;;5046565;28;20458;-52
2022/10/02 04:53:11;;;;;;;5.97;2.10;;;12.80;1.00;;;;;;5048384;28;20437;-55
2022/10/02 04:55:58;;;;;;;3.80;2.07;;;12.80;1.00;;;;;;5045990;28;20955;-56
2022/10/02 04:58:47;;;;;;;4.93;2.33;;;12.80;1.00;;;;;;5043799;28;20982;-54
2022/10/02 05:01:26;;;;;;;3.40;2.03;;;12.80;1.00;;;;;;5045990;28;20450;-53
2022/10/02 05:04:29;;;;;;;8.10;2.20;;;12.90;1.00;;;;;;5041413;28;20443;-54
2022/10/02 05:07:20;;;;;;;6.40;2.80;;;12.80;1.00;;;;;;5048548;28;20961;-55
2022/10/02 05:10:09;;;;;;;5.77;4.20;;;12.80;1.00;;;;;;5036833;28;20449;-55
2022/10/02 05:13:05;;;;;;;6.23;2.87;;;12.60;1.00;;;;;;5043724;28;20442;-55
2022/10/02 05:16:11;;;;;;;8.93;3.80;;;12.60;1.00;;;;;;5045965;28;20474;-56
2022/10/02 05:18:51;;;;;;;6.33;3.00;;;12.70;1.00;;;;;;5044123;28;20446;-54
2022/10/02 05:21:31;;;;;;;4.90;3.07;;;12.50;1.00;;;;;;5046766;28;20548;-54
2022/10/02 05:24:21;;;;;;;3.03;1.60;;;12.30;1.00;;;;;;5047521;28;20980;-53
2022/10/02 05:27:21;;;;;;;6.10;3.10;;;12.40;1.00;;;;;;5050169;28;20477;-54
2022/10/02 05:30:08;;;;;;;7.13;2.53;;;12.40;1.00;;;;;;5046602;28;20766;-54
2022/10/02 05:32:39;;;;;;;5.37;2.37;;;12.40;1.00;;;;;;5045940;28;20474;-54
2022/10/02 05:35:30;;;;;;;6.20;3.30;;;12.40;1.00;;;;;;5052127;28;20424;-54
2022/10/02 05:38:08;;;;;;;5.60;2.50;;;12.30;1.00;;;;;;5055721;28;20556;-54
2022/10/02 05:40:57;;;;;;;5.07;2.70;;;12.50;1.00;;;;;;5052619;28;21043;-54
2022/10/02 05:43:40;;;;;;;4.03;2.90;;;12.40;1.00;;;;;;5052295;28;20962;-55
2022/10/02 05:46:19;;;;;;;7.20;3.60;;;12.50;1.00;;;;;;5052913;28;20457;-54
2022/10/02 05:48:51;;;;;;;5.37;3.43;;;12.60;1.00;;;;;;5049364;28;20930;-54
2022/10/02 05:51:52;;;;;;;7.03;3.50;;;12.60;1.00;;;;;;5052670;28;20945;-55
2022/10/02 05:54:37;;;;;;;5.57;3.30;;;12.80;1.00;;;;;;5048480;28;20443;-54
2022/10/02 05:57:18;;;;;;;5.40;3.30;;;12.80;1.00;;;;;;5051880;28;20799;-52
2022/10/02 05:59:55;;;;;;;4.50;2.90;;;12.80;1.00;;;;;;5051550;28;20417;-55
2022/10/02 06:02:41;;;;;;;4.63;3.53;;;12.90;1.00;;;;;;5046640;28;20827;-55
2022/10/02 06:05:42;;;;;;;8.93;3.60;;;13.10;1.00;;;;;;5049077;28;20440;-53
2022/10/02 06:08:11;;;;;;;5.27;2.60;;;13.20;1.00;;;;;;5049840;28;20451;-55
2022/10/02 06:10:50;;;;;;;5.73;2.47;;;13.50;1.00;;;;;;5051883;28;20446;-53
2022/10/02 06:13:34;;;;;;;5.33;2.37;;;13.50;1.00;;;;;;5049566;28;20481;-55
2022/10/02 06:16:37;;;;;;;5.17;2.97;;;13.50;1.00;;;;;;5051472;28;20457;-53
2022/10/02 06:19:10;;;;;;;4.07;2.57;;;13.50;1.00;;;;;;5039902;28;20459;-56
2022/10/02 06:21:50;;;;;;;8.90;2.37;;;13.50;1.00;;;;;;5044044;28;20457;-53
2022/10/02 06:24:44;;;;;;;5.60;2.97;;;13.50;1.00;;;;;;5051387;28;20418;-53
2022/10/02 06:27:16;;;;;;;7.53;2.90;;;13.50;1.00;;;;;;5048213;28;20450;-54
2022/10/02 06:29:48;;;;;;;4.40;2.50;;;13.50;1.00;;;;;;5051639;28;20500;-54
2022/10/02 06:32:17;;;;;;;5.67;2.37;;;13.70;1.00;;;;;;5047269;28;20450;-53
2022/10/02 06:34:44;;;;;;;5.67;2.30;;;13.80;1.00;;;;;;5048412;28;20427;-54
2022/10/02 06:37:23;;;;;;;10.20;2.87;;;13.90;1.00;;;;;;5046528;28;20451;-54
2022/10/02 06:39:57;;;;;;;3.10;2.50;;;14.10;1.00;;;;;;5051320;28;20964;-55
2022/10/02 06:42:51;;;;;;;6.80;2.87;;;14.10;1.00;;;;;;5050878;28;22110;-55
2022/10/02 06:45:48;;;;;;;5.30;2.60;;;14.10;1.00;;;;;;5041827;28;20456;-55
2022/10/02 06:48:28;;;;;;;6.40;2.90;;;14.20;1.00;;;;;;5030905;28;20443;-54
2022/10/02 06:51:15;;;;;;;5.20;2.63;;;14.40;1.00;;;;;;5048256;28;20441;-54
2022/10/02 06:53:41;;;;;;;4.90;2.43;;;14.50;1.00;;;;;;5049905;28;20974;-54
2022/10/02 06:56:25;;;;;;;5.80;2.77;;;14.50;1.00;;;;;;5051816;28;20449;-54
2022/10/02 06:59:18;;;;;;;4.07;2.60;;;14.60;1.00;;;;;;5051150;28;20184;-53
2022/10/02 07:02:16;;;;;;;7.47;3.10;;;14.80;1.00;;;;;;5048612;28;20532;-55
2022/10/02 07:05:06;;;;;;;6.80;2.30;;;14.90;1.00;;;;;;5051774;28;20584;-55
2022/10/02 07:07:50;;;;;;;6.73;2.60;;;15.30;1.00;;;;;;5052482;28;20453;-56
2022/10/02 07:10:41;;;;;;;7.00;3.47;;;15.60;1.00;;;;;;5050661;28;20463;-54
2022/10/02 07:13:45;;;;;;;6.37;2.60;;;16.00;1.00;;;;;;5044707;28;20424;-55
2022/10/02 07:16:32;;;;;;;8.83;3.63;;;16.00;1.00;;;;;;5046954;28;20450;-55
2022/10/02 07:19:12;;;;;;;6.50;2.77;;;16.10;1.00;;;;;;5055218;28;20422;-54
2022/10/02 07:22:07;;;;;;;4.87;2.50;;;16.00;1.00;;;;;;5050267;28;20445;-55
2022/10/02 07:24:45;;;;;;;8.23;2.57;;;16.00;1.00;;;;;;5049194;28;20556;-57
2022/10/02 07:27:17;;;;;;;4.23;2.33;;;15.90;1.00;;;;;;5050355;28;20530;-55
2022/10/02 07:29:57;;;;;;;5.67;2.63;;;16.00;1.00;;;;;;5050522;28;20439;-55
2022/10/02 07:33:04;;;;;;;3.63;2.60;;;16.10;1.00;;;;;;5046729;28;20424;-55
2022/10/02 07:35:42;;;;;;;4.77;2.47;;;16.10;1.00;;;;;;5046776;28;20529;-54
2022/10/02 07:38:43;;;;;;;5.63;2.90;;;16.00;1.00;;;;;;5051432;28;20445;-54
2022/10/02 07:41:29;;;;;;;5.97;3.33;;;16.10;1.00;;;;;;5055298;28;21027;-55
2022/10/02 07:44:08;;;;;;;9.73;3.33;;;16.10;1.00;;;;;;5049959;28;20561;-54
2022/10/02 07:46:59;;;;;;;5.60;2.87;;;16.20;1.00;;;;;;5046490;28;20473;-54
2022/10/02 07:49:49;;;;;;;7.07;2.83;;;16.30;1.00;;;;;;5049804;28;20456;-56
2022/10/02 07:52:41;;;;;;;7.13;2.90;;;16.40;1.00;;;;;;5048484;28;20485;-56
2022/10/02 07:55:17;;;;;;;6.00;2.90;;;16.70;1.00;;;;;;5046981;28;20449;-54
2022/10/02 07:58:17;;;;;;;6.40;2.70;;;16.80;1.00;;;;;;5050185;28;20451;-55
2022/10/02 08:00:49;;;;;;;5.80;2.83;;;16.70;1.00;;;;;;5049039;28;20463;-55
2022/10/02 08:03:20;;;;;;;4.80;2.70;;;16.70;1.00;;;;;;5048431;28;20917;-54
2022/10/02 08:05:51;;;;;;;5.70;2.30;;;16.60;1.00;;;;;;5049694;28;20980;-55
2022/10/02 08:09:00;;;;;;;8.40;3.40;;;16.60;1.00;;;;;;5050571;28;20449;-55
2022/10/02 08:11:29;;;;;;;4.97;3.10;;;16.70;1.00;;;;;;5028448;28;20455;-56
2022/10/02 08:14:02;;;;;;;3.57;2.30;;;16.70;1.00;;;;;;5043445;28;20472;-54
2022/10/02 08:16:35;;;;;;;7.20;2.60;;;16.80;1.00;;;;;;5050265;28;20515;-54
2022/10/02 08:19:15;;;;;;;10.83;3.10;;;17.00;1.00;;;;;;5048073;28;20444;-54
2022/10/02 08:21:46;;;;;;;5.97;2.70;;;17.20;1.00;;;;;;5050072;28;20456;-54
2022/10/02 08:24:23;;;;;;;8.53;3.80;;;17.30;1.00;;;;;;5050387;28;20469;-54
2022/10/02 08:27:19;;;;;;;4.60;2.47;;;17.30;1.00;;;;;;5048680;28;20444;-54
2022/10/02 08:29:54;;;;;;;5.93;2.67;;;17.40;1.00;;;;;;5049409;28;20471;-53
2022/10/02 08:32:21;;;;;;;3.93;2.20;;;20.00;1.00;;;;;;5055519;28;20481;-55
2022/10/02 08:34:47;;;;;;;4.00;2.70;;;17.60;1.00;;;;;;5049655;28;20450;-55
2022/10/02 08:37:34;;;;;;;5.43;2.40;;;17.50;1.00;;;;;;5043890;28;20961;-55
2022/10/02 08:40:28;;;;;;;4.93;2.53;;;17.50;1.00;;;;;;5048409;28;20856;-54
2022/10/02 08:42:56;;;;;;;11.07;3.00;;;17.60;1.00;;;;;;5053409;28;20442;-55
2022/10/02 08:45:49;;;;;;;9.03;3.13;;;17.60;1.00;;;;;;5048865;28;20470;-55
2022/10/02 08:48:48;;;;;;;6.50;2.70;;;17.50;1.00;;;;;;5049120;28;20444;-54
2022/10/02 08:51:19;;;;;;;6.33;2.43;;;17.30;1.00;;;;;;5044365;28;20423;-56
2022/10/02 08:54:03;;;;;;;5.50;2.53;;;17.30;1.00;;;;;;5050548;28;20435;-52
2022/10/02 08:56:57;;;;;;;5.87;2.70;;;17.50;1.00;;;;;;5045963;28;20457;-54
2022/10/02 08:59:24;;;;;;;6.17;2.57;;;17.60;1.00;;;;;;5049506;28;21016;-55
2022/10/02 09:02:11;;;;;;;6.80;2.63;;;17.70;1.00;;;;;;5048164;28;20443;-55
2022/10/02 09:04:57;;;;;;;12.20;3.20;;;17.70;1.00;;;;;;5051552;28;20987;-56
2022/10/02 09:07:23;;;;;;;5.20;2.30;;;17.50;1.00;;;;;;5048562;28;21111;-53
2022/10/02 09:10:07;;;;;;;6.97;3.03;;;17.40;1.00;;;;;;5050591;28;20442;-57
2022/10/02 09:13:09;;;;;;;6.13;2.40;;;17.40;1.00;;;;;;5048768;28;20191;-55
2022/10/02 09:15:47;;;;;;;6.30;2.47;;;17.80;1.00;;;;;;5048474;28;20498;-57
2022/10/02 09:18:46;;;;;;;8.10;2.20;;;18.00;1.00;;;;;;5051779;28;20532;-55
2022/10/02 09:21:45;;;;;;;5.50;2.30;;;18.00;1.00;;;;;;5037846;28;20450;-55
2022/10/02 09:24:42;;;;;;;6.80;2.97;;;17.70;1.00;;;;;;5048854;28;20450;-55
2022/10/02 09:27:25;;;;;;;8.00;2.90;;;17.80;1.00;;;;;;5042505;28;20952;-56
2022/10/02 09:30:09;;;;;;;6.43;2.57;;;18.30;1.00;;;;;;5046221;28;20447;-55
2022/10/02 09:32:56;;;;;;;5.23;2.50;;;18.70;1.00;;;;;;5047310;28;20922;-54
2022/10/02 09:35:31;;;;;;;5.20;2.10;;;18.90;1.00;;;;;;5047887;28;20534;-56
2022/10/02 09:38:28;;;;;;;4.67;1.73;;;19.00;1.00;;;;;;5049596;28;20439;-55
2022/10/02 09:41:00;;;;;;;4.60;2.23;;;18.70;1.00;;;;;;5035389;28;22011;-55
2022/10/02 09:43:37;;;;;;;5.47;2.33;;;18.60;1.00;;;;;;5049582;28;20448;-54
2022/10/02 09:46:25;;;;;;;5.67;2.33;;;18.50;1.00;;;;;;5049465;28;20448;-53
2022/10/02 09:49:10;;;;;;;6.07;2.20;;;18.20;1.00;;;;;;5048645;28;20414;-54
2022/10/02 09:51:47;;;;;;;4.80;2.70;;;18.20;1.00;;;;;;5046591;28;20431;-54
2022/10/02 09:54:24;;;;;;;3.93;2.40;;;18.30;1.00;;;;;;5051783;28;20975;-54
2022/10/02 09:57:29;;;;;;;3.53;1.90;;;18.20;1.00;;;;;;5048726;28;20434;-56
2022/10/02 10:00:04;;;;;;;3.80;1.40;;;18.00;1.00;;;;;;5035810;28;20438;-54
2022/10/02 10:02:49;;;;;;;4.87;1.63;;;18.10;1.00;;;;;;5051122;28;20459;-55
2022/10/02 10:05:40;;;;;;;2.93;1.60;;;17.80;1.00;;;;;;5045881;28;20525;-53
2022/10/02 10:08:18;;;;;;;4.13;2.03;;;17.60;1.00;;;;;;5047430;28;20443;-56
2022/10/02 10:10:46;;;;;;;3.20;1.90;;;17.50;1.00;;;;;;5047979;28;20409;-55
2022/10/02 10:13:21;;;;;;;4.13;2.07;;;17.80;1.00;;;;;;5048700;28;20421;-56
2022/10/02 10:16:11;;;;;;;5.30;2.10;;;18.00;1.00;;;;;;5047838;28;20544;-56
2022/10/02 10:19:12;;;;;;;3.23;2.13;;;18.00;1.00;;;;;;5049071;28;20564;-54
2022/10/02 10:22:20;;;;;;;7.60;2.37;;;17.90;1.00;;;;;;5055735;28;20951;-54
2022/10/02 10:25:19;;;;;;;5.07;2.03;;;18.20;1.00;;;;;;5056078;28;20491;-55
2022/10/02 10:27:54;;;;;;;6.50;2.27;;;18.40;1.00;;;;;;5049766;28;20444;-51
2022/10/02 10:30:46;;;;;;;5.50;2.13;;;18.30;1.00;;;;;;5052598;28;20973;-53
2022/10/02 10:33:36;;;;;;;3.27;1.93;;;18.20;1.00;;;;;;5052798;28;20956;-54
2022/10/02 10:39:19;;;;;;;7.53;4.37;;;18.00;1.00;;;;;;5049733;28;20776;-56
2022/10/02 10:41:45;;;;;;;3.10;2.43;;;18.00;1.00;;;;;;5050426;28;20544;-55
2022/10/02 10:44:27;;;;;;;5.37;2.40;;;18.00;1.00;;;;;;5051328;28;20536;-52
2022/10/02 10:47:34;;;;;;;4.10;1.83;;;18.00;1.00;;;;;;5048868;28;20198;-55
2022/10/02 10:50:13;;;;;;;4.00;2.20;;;18.10;1.00;;;;;;5049373;28;20532;-55
2022/10/02 10:53:10;;;;;;;6.50;1.90;;;18.10;1.00;;;;;;5045622;28;20794;-54
2022/10/02 10:56:16;;;;;;;6.63;1.77;;;18.30;1.00;;;;;;5048804;28;20452;-55
2022/10/02 10:59:17;;;;;;;7.23;2.23;;;18.30;1.00;;;;;;5048068;28;20445;-55
2022/10/02 11:02:03;;;;;;;3.77;2.10;;;18.20;1.00;;;;;;5046609;28;20527;-54
2022/10/02 11:04:51;;;;;;;3.33;1.97;;;18.00;1.00;;;;;;5050404;28;20475;-54
2022/10/02 11:07:36;;;;;;;6.20;2.00;;;18.10;1.00;;;;;;5045719;28;20496;-56
2022/10/02 11:10:46;;;;;;;2.70;2.00;;;18.10;1.00;;;;;;5048225;28;20446;-55
2022/10/02 11:13:18;;;;;;;3.23;2.00;;;18.20;1.00;;;;;;5026657;28;20475;-54
2022/10/02 11:15:55;;;;;;;3.70;2.23;;;18.30;1.00;;;;;;5046443;28;20523;-55
2022/10/02 11:18:45;;;;;;;8.73;1.83;;;18.40;1.00;;;;;;5048560;28;20449;-55
2022/10/02 11:21:29;;;;;;;2.37;1.60;;;18.40;1.00;;;;;;5049474;28;20569;-56
2022/10/02 11:24:19;;;;;;;4.80;1.97;;;18.40;1.00;;;;;;5049668;28;20445;-53
2022/10/02 11:26:57;;;;;;;3.63;1.87;;;18.60;1.00;;;;;;5046741;28;20574;-52
2022/10/02 11:29:53;;;;;;;3.33;1.50;;;18.60;1.00;;;;;;5049913;28;20506;-55
2022/10/02 11:32:53;;;;;;;4.70;1.70;;;18.60;1.00;;;;;;5043084;28;20454;-55
2022/10/02 11:35:43;;;;;;;3.87;2.30;;;18.70;1.00;;;;;;5029457;28;20471;-55
2022/10/02 11:38:31;;;;;;;4.20;2.00;;;18.40;1.00;;;;;;5045104;28;20438;-55
2022/10/02 11:41:12;;;;;;;5.47;1.93;;;18.40;1.00;;;;;;5044722;28;21257;-54
2022/10/02 11:44:12;;;;;;;4.03;1.93;;;18.30;1.00;;;;;;5046611;28;20483;-54
2022/10/02 11:47:16;;;;;;;5.60;2.00;;;18.10;1.00;;;;;;5044570;28;20443;-55
2022/10/02 11:50:24;;;;;;;3.83;1.33;;;17.70;1.00;;;;;;5044445;28;20447;-54
2022/10/02 11:53:14;;;;;;;3.23;1.70;;;17.50;1.00;;;;;;5044483;28;20434;-55
2022/10/02 11:55:58;;;;;;;6.23;3.53;;;17.70;1.00;;;;;;5049054;28;20963;-54
2022/10/02 11:58:24;;;;;;;5.30;2.30;;;17.60;1.00;;;;;;5047411;28;20443;-53
2022/10/02 12:01:28;;;;;;;3.97;3.10;;;17.70;1.00;;;;;;5047954;28;20477;-55
2022/10/02 12:03:57;;;;;;;4.80;1.77;;;17.80;1.00;;;;;;5048881;28;20193;-52
2022/10/02 12:06:59;;;;;;;2.70;1.60;;;17.80;1.00;;;;;;5048953;28;20549;-53
2022/10/02 12:09:49;;;;;;;3.57;1.40;;;17.80;1.00;;;;;;5048544;28;20449;-55
2022/10/02 12:12:50;;;;;;;2.37;1.50;;;17.70;1.00;;;;;;5046904;28;20498;-55
2022/10/02 12:15:25;;;;;;;2.50;1.40;;;18.00;1.00;;;;;;5048313;28;20451;-54
2022/10/02 12:18:16;;;;;;;3.47;1.50;;;18.50;1.00;;;;;;5051906;28;20449;-55
2022/10/02 12:27:32;;;;;;;1.57;1.40;;;18.40;1.00;;;;;;5046862;28;20798;-54
2022/10/02 12:30:05;;;;;;;1.90;1.43;;;18.00;1.00;;;;;;5047982;28;20545;-54
2022/10/02 12:32:42;;;;;;;2.17;1.50;;;17.80;1.00;;;;;;5047049;28;20448;-54
2022/10/02 12:35:26;;;;;;;3.63;2.50;;;17.70;1.00;;;;;;5048021;28;20424;-53
2022/10/02 12:38:34;;;;;;;3.60;1.57;;;17.90;1.00;;;;;;5048243;28;20957;-55
2022/10/02 12:41:18;;;;;;;3.43;1.30;;;18.00;1.00;;;;;;5044948;28;20447;-52
2022/10/02 12:44:20;;;;;;;2.57;1.30;;;18.20;1.00;;;;;;5048306;28;20562;-55
2022/10/02 12:47:12;;;;;;;1.83;1.50;;;18.10;1.00;;;;;;5038928;28;20622;-54
2022/10/02 12:50:08;;;;;;;5.40;1.37;;;18.10;1.00;;;;;;5046506;28;20457;-55
2022/10/02 12:52:43;;;;;;;3.50;1.50;;;18.10;1.00;;;;;;5040409;28;20550;-54
2022/10/02 12:55:41;;;;;;;3.93;1.40;;;17.90;1.00;;;;;;5045094;28;20697;-53
2022/10/02 12:58:27;;;;;;;3.60;1.60;;;17.90;1.00;;;;;;5045989;28;20446;-53
2022/10/02 13:01:15;;;;;;;5.87;1.83;;;18.20;1.00;;;;;;5050483;28;20421;-55
2022/10/02 13:04:15;;;;;;;5.63;1.80;;;18.50;1.00;;;;;;5048969;28;20500;-54
2022/10/02 13:07:10;;;;;;;2.63;1.90;;;18.40;1.00;;;;;;5042116;28;20817;-55
2022/10/02 13:10:07;;;;;;;3.07;1.80;;;18.20;1.00;;;;;;5044128;28;20418;-55
2022/10/02 13:12:49;;;;;;;3.33;2.13;;;17.90;1.00;;;;;;5041252;28;20450;-54
2022/10/02 13:15:37;;;;;;;2.00;1.80;;;18.10;1.00;;;;;;5041438;28;20456;-55
2022/10/02 13:18:03;;;;;;;4.60;2.17;;;18.50;1.00;;;;;;5047408;28;20445;-53
2022/10/02 13:20:37;;;;;;;5.23;2.43;;;17.90;1.00;;;;;;5041692;28;20433;-53
2022/10/02 13:23:21;;;;;;;3.03;2.03;;;18.10;1.00;;;;;;5043135;28;20280;-55
2022/10/02 13:25:46;;;;;;;6.90;1.90;;;18.00;1.00;;;;;;5044459;28;20463;-54
2022/10/02 13:28:19;;;;;;;4.33;1.77;;;18.00;1.00;;;;;;5044277;28;20473;-54
2022/10/02 13:31:01;;;;;;;2.90;1.53;;;18.40;1.00;;;;;;5048842;28;20175;-55
2022/10/02 13:33:41;;;;;;;2.80;1.90;;;18.70;1.00;;;;;;5046896;28;20480;-53
2022/10/02 13:36:30;;;;;;;4.43;1.93;;;18.60;1.00;;;;;;5043270;28;20447;-55
2022/10/02 13:39:04;;;;;;;4.70;1.80;;;18.50;1.00;;;;;;5047675;28;20704;-57
2022/10/02 13:42:02;;;;;;;2.77;2.00;;;18.40;1.00;;;;;;5043273;28;20420;-53
2022/10/02 13:44:47;;;;;;;4.80;2.30;;;18.20;1.00;;;;;;5045306;28;20576;-55
2022/10/02 13:47:38;;;;;;;3.07;1.93;;;17.90;1.00;;;;;;5047584;28;20444;-55
2022/10/02 13:50:09;;;;;;;4.37;2.13;;;17.70;1.00;;;;;;5046118;28;20991;-55
2022/10/02 13:53:07;;;;;;;5.00;2.90;;;17.70;1.00;;;;;;5046517;28;20915;-55
2022/10/02 13:56:01;;;;;;;3.23;2.30;;;17.90;1.00;;;;;;5051026;28;20546;-54
2022/10/02 13:58:53;;;;;;;4.73;2.07;;;17.90;1.00;;;;;;5050353;28;20455;-52
2022/10/02 14:01:24;;;;;;;6.43;2.27;;;18.00;1.00;;;;;;5049066;28;20469;-53
2022/10/02 14:04:02;;;;;;;5.67;2.53;;;18.00;1.00;;;;;;5055472;28;20452;-55
2022/10/02 14:06:40;;;;;;;4.53;2.50;;;18.00;1.00;;;;;;5052439;28;20865;-54
2022/10/02 14:09:24;;;;;;;6.73;2.97;;;17.90;1.00;;;;;;5058122;28;20461;-54
2022/10/02 14:12:05;;;;;;;5.47;2.57;;;17.90;1.00;;;;;;5051667;28;20450;-55
2022/10/02 14:14:59;;;;;;;5.43;2.17;;;18.00;1.00;;;;;;5052108;28;20471;-55
2022/10/02 14:17:27;;;;;;;5.43;2.20;;;18.10;1.00;;;;;;5048094;28;20447;-54
2022/10/02 14:20:00;;;;;;;3.60;2.20;;;18.10;1.00;;;;;;5050951;28;20449;-53
2022/10/02 14:22:49;;;;;;;8.10;2.10;;;17.90;1.00;;;;;;5050265;28;20440;-54
2022/10/02 14:25:19;;;;;;;3.40;2.60;;;17.70;1.00;;;;;;5048920;28;20804;-55